Time;durP1;ratioP1;P1;durP2;ratioP2;P2;SDS_P1;SDS_P2;PMS_P1;PMS_P2;Temp;Humidity;BMP_temperature;BMP_pressure;BME280_temperature;BME280_humidity;BME280_pressure;Samples;Min_cycle;Max_cycle;Signal;HPM_P1;HPM_P2
2021/10/18 00:00:20;;;;;;;30.33;15.53;;;;;;;9.79;100.00;101572.69;7403430;19;21248;-53
2021/10/18 00:02:49;;;;;;;25.57;14.30;;;;;;;9.77;100.00;101566.56;7333049;19;20395;-50
2021/10/18 00:05:19;;;;;;;24.00;14.23;;;;;;;9.79;100.00;101576.97;7399821;19;20494;-51
2021/10/18 00:07:51;;;;;;;26.20;14.93;;;;;;;9.77;100.00;101569.16;7393250;19;20404;-51
2021/10/18 00:10:21;;;;;;;24.50;13.90;;;;;;;9.81;100.00;101570.22;7403998;19;20388;-48
2021/10/18 00:12:50;;;;;;;27.67;14.30;;;;;;;9.78;100.00;101570.94;7350404;19;20406;-48
2021/10/18 00:15:20;;;;;;;26.73;14.57;;;;;;;9.79;100.00;101571.81;7400585;19;20978;-50
2021/10/18 00:17:49;;;;;;;23.90;13.40;;;;;;;9.86;100.00;101576.53;7342871;19;20678;-50
2021/10/18 00:20:19;;;;;;;26.40;13.57;;;;;;;9.79;100.00;101575.28;7401776;19;20390;-51
2021/10/18 00:22:51;;;;;;;26.20;14.27;;;;;;;9.80;100.00;101574.47;7360564;19;20747;-49
2021/10/18 00:25:21;;;;;;;28.13;14.93;;;;;;;9.82;100.00;101578.03;7400196;19;20407;-49
2021/10/18 00:27:51;;;;;;;31.33;18.27;;;;;;;9.85;100.00;101575.63;7389568;19;20399;-47
2021/10/18 00:30:20;;;;;;;29.53;15.73;;;;;;;9.85;100.00;101583.38;7402783;19;20384;-47
2021/10/18 00:32:50;;;;;;;21.63;12.33;;;;;;;9.80;100.00;101587.34;7350056;19;20384;-47
2021/10/18 00:35:19;;;;;;;24.20;12.53;;;;;;;9.81;100.00;101590.84;7400406;19;20694;-50
2021/10/18 00:37:51;;;;;;;26.83;14.13;;;;;;;9.85;100.00;101588.53;7370852;19;20399;-48
2021/10/18 00:40:21;;;;;;;26.80;14.53;;;;;;;9.84;100.00;101594.47;7402049;19;20452;-48
2021/10/18 00:42:52;;;;;;;29.60;14.17;;;;;;;9.88;100.00;101603.28;7357831;19;20445;-47
2021/10/18 00:45:23;;;;;;;17.50;12.23;;;;;;;9.85;100.00;101601.41;7401914;19;20395;-51
2021/10/18 00:47:57;;;;;;;23.00;12.53;;;;;;;9.81;100.00;101604.63;7350196;19;20388;-53
2021/10/18 00:50:27;;;;;;;21.77;12.47;;;;;;;9.85;100.00;101603.13;7402611;19;20400;-49
2021/10/18 00:52:59;;;;;;;20.60;11.80;;;;;;;9.80;100.00;101600.25;7347914;19;20400;-49
2021/10/18 00:55:29;;;;;;;19.20;11.37;;;;;;;9.81;100.00;101601.16;7401534;19;20392;-48
2021/10/18 00:57:59;;;;;;;20.70;11.33;;;;;;;9.89;100.00;101593.88;7362625;19;20393;-51
2021/10/18 01:00:28;;;;;;;20.63;11.73;;;;;;;9.89;100.00;101596.44;7405808;19;20472;-50
2021/10/18 01:02:58;;;;;;;17.50;12.20;;;;;;;9.89;100.00;101599.03;7367780;19;20398;-52
2021/10/18 01:05:28;;;;;;;20.73;12.63;;;;;;;9.95;100.00;101594.22;7400084;19;20628;-51
2021/10/18 01:08:00;;;;;;;22.00;12.03;;;;;;;9.91;100.00;101593.16;7367090;19;20396;-51
2021/10/18 01:10:30;;;;;;;23.80;13.33;;;;;;;9.95;100.00;101594.22;7398604;19;20427;-49
2021/10/18 01:12:59;;;;;;;18.60;10.50;;;;;;;9.89;100.00;101588.72;7367170;19;20399;-48
2021/10/18 01:15:29;;;;;;;19.30;11.30;;;;;;;9.95;100.00;101592.50;7401473;19;20376;-47
2021/10/18 01:17:59;;;;;;;18.50;10.77;;;;;;;9.91;100.00;101594.84;7336671;19;20728;-51
2021/10/18 01:20:34;;;;;;;23.03;11.73;;;;;;;9.94;100.00;101582.13;7400813;19;20404;-50
2021/10/18 01:23:05;;;;;;;19.13;11.37;;;;;;;9.90;100.00;101575.88;7359359;19;20462;-47
2021/10/18 01:25:35;;;;;;;18.87;10.67;;;;;;;9.93;100.00;101588.06;7400165;19;20380;-47
2021/10/18 01:28:05;;;;;;;18.73;10.93;;;;;;;9.89;100.00;101587.00;7358146;19;20387;-48
2021/10/18 01:30:34;;;;;;;22.47;11.50;;;;;;;9.88;100.00;101576.63;7400928;19;20385;-52
2021/10/18 01:33:04;;;;;;;20.37;11.60;;;;;;;9.80;100.00;101584.78;7380255;19;20427;-49
2021/10/18 01:35:36;;;;;;;17.33;11.10;;;;;;;9.76;100.00;101582.84;7400878;19;20387;-52
2021/10/18 01:38:05;;;;;;;18.43;12.00;;;;;;;9.73;100.00;101587.81;7354953;19;20886;-51
2021/10/18 01:40:36;;;;;;;17.60;11.60;;;;;;;9.71;100.00;101579.09;7399017;19;21112;-49
2021/10/18 01:43:05;;;;;;;19.63;11.00;;;;;;;9.65;100.00;101583.91;7382014;19;20410;-52
2021/10/18 01:45:35;;;;;;;22.50;11.70;;;;;;;9.64;100.00;101576.97;7400532;19;20399;-50
2021/10/18 01:48:04;;;;;;;24.73;11.80;;;;;;;9.59;100.00;101577.59;7348483;19;20507;-48
2021/10/18 01:50:36;;;;;;;18.77;11.70;;;;;;;9.53;100.00;101579.78;7400381;19;20398;-50
2021/10/18 01:53:06;;;;;;;23.70;11.60;;;;;;;9.54;100.00;101576.41;7366272;19;20494;-52
2021/10/18 01:55:36;;;;;;;22.53;12.30;;;;;;;9.48;100.00;101575.19;7398587;19;20461;-47
2021/10/18 01:58:05;;;;;;;20.83;11.67;;;;;;;9.39;100.00;101575.53;7364196;19;20427;-47
2021/10/18 02:00:35;;;;;;;21.93;12.20;;;;;;;9.35;100.00;101560.66;7399537;19;20511;-47
2021/10/18 02:03:04;;;;;;;19.10;11.30;;;;;;;9.41;100.00;101568.75;7363142;19;20418;-48
2021/10/18 02:05:37;;;;;;;25.47;12.10;;;;;;;9.44;100.00;101568.97;7399655;19;20707;-49
2021/10/18 02:08:07;;;;;;;19.93;11.03;;;;;;;9.38;100.00;101566.03;7347451;19;20491;-54
2021/10/18 02:10:36;;;;;;;20.50;10.90;;;;;;;9.36;100.00;101570.16;7400927;19;20665;-51
2021/10/18 02:13:06;;;;;;;26.17;12.40;;;;;;;9.39;100.00;101566.09;7364899;19;20475;-51
2021/10/18 02:15:36;;;;;;;19.10;12.33;;;;;;;9.44;100.00;101576.69;7399964;19;20412;-54
2021/10/18 02:18:06;;;;;;;24.30;12.37;;;;;;;9.39;100.00;101580.66;7380644;19;20446;-54
2021/10/18 02:20:38;;;;;;;20.40;11.17;;;;;;;9.40;100.00;101572.13;7400171;19;20464;-50
2021/10/18 02:23:07;;;;;;;23.13;12.87;;;;;;;9.35;100.00;101568.41;7346345;19;20971;-52
2021/10/18 02:25:37;;;;;;;21.27;12.93;;;;;;;9.30;100.00;101569.03;7399859;19;20451;-54
2021/10/18 02:28:07;;;;;;;23.10;13.23;;;;;;;9.36;100.00;101559.88;7368538;19;20397;-53
2021/10/18 02:30:36;;;;;;;22.80;14.10;;;;;;;9.41;100.00;101568.75;7398691;19;20402;-49
2021/10/18 02:33:05;;;;;;;23.87;11.80;;;;;;;9.35;100.00;101574.44;7379379;19;20475;-48
2021/10/18 02:35:37;;;;;;;29.30;17.10;;;;;;;9.44;100.00;101574.13;7400768;19;20388;-47
2021/10/18 02:38:07;;;;;;;22.37;12.87;;;;;;;9.37;100.00;101566.78;7331360;19;20393;-52
2021/10/18 02:40:36;;;;;;;27.77;15.73;;;;;;;9.38;100.00;101564.31;7398282;19;20459;-47
2021/10/18 02:43:06;;;;;;;23.73;12.60;;;;;;;9.36;100.00;101570.16;7324792;19;20678;-47
2021/10/18 02:45:35;;;;;;;31.07;14.87;;;;;;;9.36;100.00;101565.03;7397194;19;20384;-47
2021/10/18 02:48:05;;;;;;;22.93;13.43;;;;;;;9.34;100.00;101572.69;7361441;19;20422;-52
2021/10/18 02:50:37;;;;;;;24.63;13.20;;;;;;;9.32;100.00;101582.88;7399152;19;20408;-50
2021/10/18 02:53:07;;;;;;;19.60;11.83;;;;;;;9.36;100.00;101575.31;7380969;19;20395;-48
2021/10/18 02:55:36;;;;;;;21.27;11.87;;;;;;;9.38;100.00;101573.75;7397966;19;20398;-48
2021/10/18 02:58:06;;;;;;;30.50;16.30;;;;;;;9.43;100.00;101565.47;7363220;19;20382;-51
2021/10/18 03:00:35;;;;;;;28.77;13.30;;;;;;;9.40;100.00;101572.13;7398868;19;20390;-51
2021/10/18 03:03:05;;;;;;;22.23;13.10;;;;;;;9.32;100.00;101575.16;7363902;19;20485;-49
2021/10/18 03:05:37;;;;;;;28.80;16.73;;;;;;;9.47;100.00;101574.28;7404804;19;20748;-50
2021/10/18 03:08:07;;;;;;;30.20;13.03;;;;;;;9.33;100.00;101576.03;7369691;19;20465;-51
2021/10/18 03:10:40;;;;;;;24.83;12.60;;;;;;;9.31;100.00;101577.63;7406455;19;20384;-47
2021/10/18 03:13:09;;;;;;;23.13;12.80;;;;;;;9.31;100.00;101578.53;7353028;19;20400;-49
2021/10/18 03:15:39;;;;;;;25.30;13.70;;;;;;;9.37;100.00;101577.09;7405158;19;20413;-48
2021/10/18 03:18:08;;;;;;;23.50;12.93;;;;;;;9.29;100.00;101572.38;7370253;19;20470;-51
2021/10/18 03:20:41;;;;;;;26.10;14.60;;;;;;;9.27;100.00;101579.13;7404764;19;20842;-52
2021/10/18 03:23:10;;;;;;;24.07;13.97;;;;;;;9.19;100.00;101573.50;7377540;19;20421;-49
2021/10/18 03:25:39;;;;;;;24.13;14.40;;;;;;;9.38;100.00;101566.03;7404997;19;20406;-50
2021/10/18 03:28:09;;;;;;;30.70;13.97;;;;;;;9.29;100.00;101580.09;7405754;19;20467;-49
2021/10/18 03:30:38;;;;;;;34.07;14.80;;;;;;;9.39;100.00;101570.38;7352070;19;20423;-48
2021/10/18 03:33:08;;;;;;;28.83;15.20;;;;;;;9.35;100.00;101578.69;7346287;19;20424;-47
2021/10/18 03:35:37;;;;;;;23.37;13.67;;;;;;;9.31;100.00;101575.97;7404608;19;20403;-49
2021/10/18 03:38:09;;;;;;;27.30;13.37;;;;;;;9.32;100.00;101582.88;7391997;19;20462;-49
2021/10/18 03:40:39;;;;;;;25.00;13.33;;;;;;;9.30;100.00;101586.16;7405417;19;20477;-47
2021/10/18 03:43:09;;;;;;;27.37;14.33;;;;;;;9.31;100.00;101578.53;7373889;19;20405;-48
2021/10/18 03:45:38;;;;;;;27.83;14.70;;;;;;;9.38;100.00;101579.75;7404447;19;20451;-48
2021/10/18 03:48:08;;;;;;;26.80;14.50;;;;;;;9.44;100.00;101594.72;7362348;19;20726;-47
2021/10/18 03:50:37;;;;;;;25.97;12.70;;;;;;;9.39;100.00;101598.69;7404941;19;20399;-47
2021/10/18 03:53:09;;;;;;;28.13;13.80;;;;;;;9.44;100.00;101592.13;7352539;19;20912;-48
2021/10/18 03:55:39;;;;;;;29.43;15.33;;;;;;;9.42;100.00;101591.13;7403958;19;20395;-47
2021/10/18 03:58:08;;;;;;;23.63;14.17;;;;;;;9.54;100.00;101593.56;7371694;19;20382;-47
2021/10/18 04:00:38;;;;;;;28.50;16.13;;;;;;;9.58;100.00;101593.84;7404034;19;20758;-48
2021/10/18 04:03:07;;;;;;;25.87;14.50;;;;;;;9.58;100.00;101592.94;7368417;19;20361;-50
2021/10/18 04:05:37;;;;;;;20.57;13.60;;;;;;;9.47;100.00;101592.31;7402768;19;20400;-48
2021/10/18 04:08:10;;;;;;;24.43;13.83;;;;;;;9.51;100.00;101586.56;7404278;19;20459;-49
2021/10/18 04:10:40;;;;;;;26.53;14.40;;;;;;;9.63;100.00;101581.22;7351311;19;20428;-47
2021/10/18 04:13:10;;;;;;;24.57;13.20;;;;;;;9.61;100.00;101584.50;7351378;19;20404;-47
2021/10/18 04:15:39;;;;;;;25.40;13.33;;;;;;;9.67;100.00;101584.88;7403304;19;20387;-48
2021/10/18 04:18:09;;;;;;;23.37;13.17;;;;;;;9.64;100.00;101582.13;7368748;19;20407;-51
2021/10/18 04:20:39;;;;;;;24.40;13.40;;;;;;;9.70;100.00;101587.63;7402921;19;20406;-47
2021/10/18 04:23:11;;;;;;;21.60;13.67;;;;;;;9.80;100.00;101581.34;7395317;19;20388;-52
2021/10/18 04:25:40;;;;;;;23.27;13.27;;;;;;;9.78;100.00;101588.97;7401058;19;20464;-51
2021/10/18 04:28:09;;;;;;;22.80;13.30;;;;;;;9.81;100.00;101590.84;7387789;19;20929;-50
2021/10/18 04:30:39;;;;;;;24.20;13.90;;;;;;;9.83;100.00;101584.97;7403474;19;20463;-48
2021/10/18 04:33:09;;;;;;;22.60;12.97;;;;;;;9.84;100.00;101585.84;7350772;19;20857;-48
2021/10/18 04:35:38;;;;;;;20.43;12.13;;;;;;;9.70;100.00;101583.34;7402756;19;20399;-47
2021/10/18 04:38:10;;;;;;;22.80;13.60;;;;;;;9.75;100.00;101583.66;7354503;19;20406;-46
2021/10/18 04:40:40;;;;;;;21.03;11.80;;;;;;;9.71;100.00;101590.28;7404258;19;20380;-47
2021/10/18 04:43:10;;;;;;;23.17;13.83;;;;;;;9.85;100.00;101593.69;7397994;19;20452;-47
2021/10/18 04:45:40;;;;;;;20.87;11.97;;;;;;;9.82;100.00;101592.59;7400483;19;20392;-48
2021/10/18 04:48:09;;;;;;;24.07;13.53;;;;;;;9.94;100.00;101597.59;7350251;19;20837;-52
2021/10/18 04:50:39;;;;;;;23.03;13.10;;;;;;;9.83;100.00;101599.53;7402886;19;20388;-53
2021/10/18 04:53:11;;;;;;;21.73;13.20;;;;;;;9.90;100.00;101600.78;7370119;19;20467;-49
2021/10/18 04:55:41;;;;;;;22.67;13.27;;;;;;;9.91;100.00;101602.56;7404786;19;20395;-52
2021/10/18 04:58:10;;;;;;;26.60;13.37;;;;;;;9.96;100.00;101609.75;7393157;19;20404;-49
2021/10/18 05:00:42;;;;;;;23.90;12.83;;;;;;;9.94;100.00;101610.50;7404453;19;20471;-52
2021/10/18 05:03:11;;;;;;;34.47;13.70;;;;;;;9.95;100.00;101609.69;7369648;19;20392;-47
2021/10/18 05:05:41;;;;;;;23.33;13.30;;;;;;;9.88;100.00;101610.13;7398807;19;20459;-53
2021/10/18 05:08:15;;;;;;;23.17;12.73;;;;;;;9.83;100.00;101618.47;7340172;19;20443;-50
2021/10/18 05:10:45;;;;;;;19.60;11.87;;;;;;;9.91;100.00;101618.03;7400965;19;20463;-51
2021/10/18 05:13:16;;;;;;;24.77;13.30;;;;;;;9.97;100.00;101618.38;7365404;19;20379;-50
2021/10/18 05:15:49;;;;;;;18.90;12.00;;;;;;;9.86;100.00;101623.81;7401430;19;20842;-49
2021/10/18 05:18:18;;;;;;;28.53;13.83;;;;;;;9.89;100.00;101619.66;7388971;19;20406;-48
2021/10/18 05:20:51;;;;;;;21.87;12.30;;;;;;;9.91;100.00;101615.47;7402092;19;20402;-51
2021/10/18 05:23:23;;;;;;;21.50;12.43;;;;;;;9.85;100.00;101619.44;7397606;19;20447;-47
2021/10/18 05:25:53;;;;;;;26.87;12.60;;;;;;;9.85;100.00;101619.44;7400838;19;20738;-48
2021/10/18 05:28:22;;;;;;;26.00;14.07;;;;;;;9.92;100.00;101619.81;7341026;19;20834;-47
2021/10/18 05:30:52;;;;;;;19.70;12.73;;;;;;;9.91;100.00;101623.19;7400832;19;20856;-48
2021/10/18 05:33:21;;;;;;;31.50;12.73;;;;;;;9.88;100.00;101628.19;7351196;19;20503;-48
2021/10/18 05:35:51;;;;;;;22.20;13.40;;;;;;;9.92;100.00;101625.88;7401313;19;20415;-51
2021/10/18 05:38:24;;;;;;;26.40;12.70;;;;;;;9.93;100.00;101626.75;7384068;19;20416;-51
2021/10/18 05:40:54;;;;;;;26.00;13.13;;;;;;;9.97;100.00;101623.53;7401017;19;20384;-47
2021/10/18 05:43:23;;;;;;;22.20;13.27;;;;;;;9.94;100.00;101618.22;7388118;19;20490;-48
2021/10/18 05:45:53;;;;;;;21.10;12.20;;;;;;;9.93;100.00;101619.00;7398864;19;20860;-50
2021/10/18 05:48:23;;;;;;;24.27;13.00;;;;;;;9.96;100.00;101622.66;7350448;19;20428;-53
2021/10/18 05:50:52;;;;;;;28.80;13.80;;;;;;;10.00;100.00;101622.03;7400453;19;20402;-51
2021/10/18 05:53:24;;;;;;;23.73;13.70;;;;;;;10.04;100.00;101625.69;7365860;19;20463;-54
2021/10/18 05:55:54;;;;;;;26.87;12.70;;;;;;;10.02;100.00;101632.44;7398832;19;20706;-52
2021/10/18 05:58:23;;;;;;;61.80;30.03;;;;;;;10.03;100.00;101639.38;7347526;19;20451;-54
2021/10/18 06:00:53;;;;;;;25.13;13.60;;;;;;;10.09;100.00;101646.56;7400581;19;20388;-52
2021/10/18 06:03:22;;;;;;;22.10;13.30;;;;;;;10.07;100.00;101649.06;7370051;19;20703;-54
2021/10/18 06:05:53;;;;;;;46.60;24.20;;;;;;;10.06;100.00;101639.53;7399506;19;20396;-54
2021/10/18 06:08:47;;;;;;;21.73;12.80;;;;;;;10.11;100.00;101643.28;7402667;19;20890;-53
2021/10/18 06:11:17;;;;;;;33.10;15.80;;;;;;;10.04;100.00;101654.03;7400852;19;20399;-50
2021/10/18 06:13:47;;;;;;;40.77;18.87;;;;;;;10.13;100.00;101652.00;7400440;19;20411;-54
2021/10/18 06:16:16;;;;;;;33.67;19.73;;;;;;;10.13;100.00;101666.59;7346056;19;20491;-47
2021/10/18 06:18:46;;;;;;;43.80;20.07;;;;;;;10.16;100.00;101655.56;7399592;19;20411;-51
2021/10/18 06:21:15;;;;;;;28.33;14.00;;;;;;;10.09;100.00;101669.78;7326668;19;20412;-47
2021/10/18 06:23:48;;;;;;;108.30;45.17;;;;;;;10.19;100.00;101660.88;7398509;19;20431;-49
2021/10/18 06:26:17;;;;;;;28.23;14.80;;;;;;;10.04;100.00;101663.47;7340691;19;20491;-48
2021/10/18 06:28:47;;;;;;;56.07;23.40;;;;;;;10.13;100.00;101667.47;7399402;19;20405;-49
2021/10/18 06:31:16;;;;;;;23.93;13.87;;;;;;;10.18;100.00;101666.84;7349364;19;20434;-51
2021/10/18 06:33:46;;;;;;;22.83;12.30;;;;;;;10.15;100.00;101664.97;7399085;19;20916;-48
2021/10/18 06:36:15;;;;;;;27.67;15.80;;;;;;;10.05;100.00;101668.69;7346714;19;20513;-48
2021/10/18 06:38:47;;;;;;;26.60;14.03;;;;;;;10.10;100.00;101675.03;7399738;19;20391;-47
2021/10/18 06:41:17;;;;;;;24.53;13.77;;;;;;;10.12;100.00;101672.53;7399071;19;20409;-49
2021/10/18 06:43:46;;;;;;;25.50;13.97;;;;;;;10.11;100.00;101674.22;7402717;19;20431;-48
2021/10/18 06:46:15;;;;;;;31.90;18.00;;;;;;;10.13;100.00;101676.91;7398112;19;20732;-47
2021/10/18 06:48:45;;;;;;;26.13;12.80;;;;;;;10.11;100.00;101681.09;7402343;19;20410;-49
2021/10/18 06:51:15;;;;;;;29.77;14.90;;;;;;;10.17;100.00;101676.28;7399725;19;20548;-46
2021/10/18 06:53:44;;;;;;;34.20;20.43;;;;;;;10.23;100.00;101678.31;7358101;19;20434;-47
2021/10/18 06:56:16;;;;;;;29.50;16.30;;;;;;;10.12;100.00;101686.31;7398110;19;20394;-47
2021/10/18 06:58:45;;;;;;;28.27;14.83;;;;;;;10.14;100.00;101696.72;7344521;19;20479;-47
2021/10/18 07:01:15;;;;;;;47.13;18.00;;;;;;;10.29;100.00;101689.00;7398464;19;20398;-49
2021/10/18 07:03:45;;;;;;;22.30;12.80;;;;;;;10.30;100.00;101700.22;7345309;19;20454;-49
2021/10/18 07:06:14;;;;;;;26.10;13.50;;;;;;;10.36;100.00;101701.44;7397039;19;20460;-46
2021/10/18 07:08:43;;;;;;;22.10;13.70;;;;;;;10.39;100.00;101701.63;7365920;19;20395;-50
2021/10/18 07:11:15;;;;;;;27.80;14.97;;;;;;;10.45;100.00;101707.97;7398372;19;20392;-49
2021/10/18 07:13:45;;;;;;;39.83;18.43;;;;;;;10.42;100.00;101715.50;7355608;19;20381;-48
2021/10/18 07:16:14;;;;;;;20.07;12.97;;;;;;;10.45;100.00;101720.88;7397687;19;20856;-47
2021/10/18 07:18:46;;;;;;;19.70;11.97;;;;;;;10.38;100.00;101720.50;7370500;19;20423;-46
2021/10/18 07:21:16;;;;;;;22.93;14.13;;;;;;;10.41;100.00;101724.91;7397756;19;20386;-48
2021/10/18 07:23:51;;;;;;;36.57;17.60;;;;;;;10.32;100.00;101725.28;7390900;19;20518;-47
2021/10/18 07:26:23;;;;;;;23.53;13.27;;;;;;;10.40;100.00;101724.03;7398777;19;20649;-49
2021/10/18 07:28:54;;;;;;;32.73;17.07;;;;;;;10.43;100.00;101720.78;7343055;19;20424;-49
2021/10/18 07:31:24;;;;;;;20.47;13.10;;;;;;;10.36;100.00;101723.78;7396121;19;20410;-48
2021/10/18 07:33:56;;;;;;;23.53;13.17;;;;;;;10.34;100.00;101721.09;7383574;19;20524;-47
2021/10/18 07:36:27;;;;;;;26.80;16.60;;;;;;;10.47;100.00;101724.44;7395476;19;20412;-48
2021/10/18 07:39:03;;;;;;;29.07;16.00;;;;;;;10.44;100.00;101729.41;7361585;19;20404;-49
2021/10/18 07:41:35;;;;;;;28.30;15.10;;;;;;;10.57;100.00;101731.91;7394751;19;20391;-49
2021/10/18 07:44:05;;;;;;;23.70;14.23;;;;;;;10.56;100.00;101724.94;7379607;19;20410;-49
2021/10/18 07:46:35;;;;;;;24.97;13.57;;;;;;;10.53;100.00;101729.94;7393727;19;20845;-48
2021/10/18 07:49:04;;;;;;;24.40;14.23;;;;;;;10.56;100.00;101730.09;7362118;19;20392;-50
2021/10/18 07:51:34;;;;;;;29.13;14.57;;;;;;;10.70;100.00;101737.75;7395478;19;20846;-48
2021/10/18 07:54:04;;;;;;;27.90;13.17;;;;;;;10.61;100.00;101741.59;7393966;19;20427;-48
2021/10/18 07:56:36;;;;;;;24.53;13.87;;;;;;;10.63;100.00;101740.00;7401900;19;20463;-50
2021/10/18 07:59:06;;;;;;;23.20;14.10;;;;;;;10.80;100.00;101734.88;7394962;19;20883;-51
2021/10/18 08:01:35;;;;;;;28.70;14.70;;;;;;;10.72;100.00;101743.91;7402305;19;20475;-49
2021/10/18 08:04:06;;;;;;;23.13;13.60;;;;;;;10.89;100.00;101740.59;7356429;19;20434;-46
2021/10/18 08:06:35;;;;;;;24.07;15.17;;;;;;;10.86;100.00;101740.41;7401699;19;20455;-46
2021/10/18 08:09:07;;;;;;;29.87;13.47;;;;;;;10.92;100.00;101751.06;7374776;19;20495;-50
2021/10/18 08:11:39;;;;;;;25.90;12.80;;;;;;;10.97;100.00;101753.91;7402939;19;20386;-54
2021/10/18 08:14:09;;;;;;;25.43;13.60;;;;;;;11.07;100.00;101757.88;7371452;19;20422;-49
2021/10/18 08:16:38;;;;;;;22.70;12.80;;;;;;;11.00;100.00;101755.78;7401491;19;20452;-48
2021/10/18 08:19:08;;;;;;;20.50;12.10;;;;;;;11.05;100.00;101759.50;7349548;19;20422;-50
2021/10/18 08:21:37;;;;;;;20.17;12.23;;;;;;;11.11;100.00;101758.94;7403433;19;20401;-50
2021/10/18 08:24:07;;;;;;;21.03;11.63;;;;;;;11.08;100.00;101757.13;7393375;19;20422;-50
2021/10/18 08:26:39;;;;;;;23.60;13.50;;;;;;;11.15;100.00;101761.81;7402118;19;20390;-51
2021/10/18 08:29:09;;;;;;;20.23;12.20;;;;;;;11.24;100.00;101766.59;7387334;19;20925;-52
2021/10/18 08:31:38;;;;;;;23.10;12.90;;;;;;;11.26;100.00;101769.25;7403576;19;20384;-46
2021/10/18 08:34:08;;;;;;;23.70;12.80;;;;;;;11.30;100.00;101759.19;7382428;19;20510;-54
2021/10/18 08:36:37;;;;;;;20.53;12.00;;;;;;;11.41;100.00;101762.34;7403017;19;20478;-52
2021/10/18 08:42:02;;;;;;;19.37;12.30;;;;;;;11.45;100.00;101765.97;7402170;19;20459;-51
2021/10/18 08:44:34;;;;;;;18.07;11.20;;;;;;;11.39;100.00;101768.22;7390971;19;20423;-51
2021/10/18 08:47:03;;;;;;;19.07;12.30;;;;;;;11.56;100.00;101762.28;7401181;19;20388;-51
2021/10/18 08:49:34;;;;;;;19.33;11.13;;;;;;;11.45;100.00;101769.44;7349518;19;20428;-53
2021/10/18 08:52:04;;;;;;;18.47;10.60;;;;;;;11.53;100.00;101767.28;7402928;19;20399;-47
2021/10/18 08:54:34;;;;;;;19.93;10.00;;;;;;;11.60;100.00;101771.97;7348357;19;20447;-49
2021/10/18 08:57:06;;;;;;;18.23;11.70;;;;;;;11.59;100.00;101771.91;7402302;19;20388;-49
2021/10/18 08:59:36;;;;;;;27.40;12.30;;;;;;;11.71;100.00;101776.84;7395956;19;20486;-48
2021/10/18 09:02:05;;;;;;;21.73;11.60;;;;;;;11.81;100.00;101773.94;7402501;19;20388;-49
2021/10/18 09:04:40;;;;;;;24.20;11.40;;;;;;;11.53;100.00;101776.75;7377460;19;20408;-53
2021/10/18 09:07:17;;;;;;;17.90;9.97;;;;;;;11.70;100.00;101778.50;7400942;19;20446;-54
2021/10/18 09:09:48;;;;;;;19.90;10.33;;;;;;;11.65;100.00;101777.41;7351443;19;20407;-53
2021/10/18 09:12:31;;;;;;;21.27;11.33;;;;;;;11.80;100.00;101781.59;7401647;19;20443;-54
2021/10/18 09:15:20;;;;;;;20.30;10.30;;;;;;;11.63;100.00;101791.91;7337698;19;20435;-48
2021/10/18 09:17:54;;;;;;;16.40;10.00;;;;;;;11.85;100.00;101781.03;7402062;19;20384;-46
2021/10/18 09:20:26;;;;;;;17.60;10.10;;;;;;;11.84;100.00;101786.16;7331759;19;20415;-48
2021/10/18 09:22:57;;;;;;;20.17;10.90;;;;;;;11.73;100.00;101781.28;7401985;19;20417;-48
2021/10/18 09:25:38;;;;;;;18.13;10.60;;;;;;;11.73;100.00;101790.72;7398961;19;20436;-49
2021/10/18 09:28:16;;;;;;;20.60;10.90;;;;;;;11.78;100.00;101786.69;7399683;19;20455;-46
2021/10/18 09:30:47;;;;;;;19.77;10.80;;;;;;;11.64;100.00;101793.69;7400353;19;20698;-48
2021/10/18 09:33:21;;;;;;;26.03;11.20;;;;;;;11.81;100.00;101788.56;7377533;19;20380;-49
2021/10/18 09:35:51;;;;;;;20.20;11.17;;;;;;;11.89;100.00;101792.41;7400556;19;20414;-47
2021/10/18 09:38:23;;;;;;;21.10;11.93;;;;;;;11.90;100.00;101789.06;7385643;19;20915;-48
2021/10/18 09:40:56;;;;;;;17.70;10.80;;;;;;;11.94;100.00;101780.63;7401910;19;20407;-50
2021/10/18 09:43:35;;;;;;;20.00;10.10;;;;;;;11.82;100.00;101792.91;7369200;19;20455;-47
2021/10/18 09:46:13;;;;;;;20.73;11.70;;;;;;;11.92;100.00;101786.53;7400225;19;20455;-47
2021/10/18 10:53:21;;;;;;;15.93;8.90;;;;;;;13.05;100.00;101784.44;7398671;19;20384;-51
2021/10/18 10:55:55;;;;;;;11.53;7.90;;;;;;;13.02;100.00;101779.09;7377064;19;20828;-46
2021/10/18 10:58:49;;;;;;;14.50;8.10;;;;;;;13.07;100.00;101781.91;7368637;19;20650;-49
2021/10/18 11:01:46;;;;;;;14.07;8.50;;;;;;;12.93;100.00;101776.94;7397883;19;20392;-49
2021/10/18 11:04:44;;;;;;;13.53;8.23;;;;;;;12.95;100.00;101779.63;7366514;19;20868;-47
2021/10/18 11:07:19;;;;;;;15.37;8.33;;;;;;;12.89;100.00;101776.75;7398094;19;20869;-47
2021/10/18 11:09:51;;;;;;;14.90;8.60;;;;;;;13.01;100.00;101777.31;7345674;19;20930;-48
2021/10/18 11:12:27;;;;;;;19.57;9.77;;;;;;;13.00;100.00;101780.75;7398897;19;20410;-48
2021/10/18 11:14:58;;;;;;;15.27;8.93;;;;;;;12.98;100.00;101766.84;7375590;19;20406;-50
2021/10/18 11:17:29;;;;;;;14.80;8.17;;;;;;;13.09;100.00;101775.13;7397843;19;20392;-51
2021/10/18 11:20:00;;;;;;;14.40;7.93;;;;;;;13.12;100.00;101774.38;7391689;19;20692;-53
2021/10/18 11:22:34;;;;;;;17.20;9.03;;;;;;;13.14;100.00;101777.91;7398546;19;20394;-50
2021/10/18 11:25:08;;;;;;;16.03;8.53;;;;;;;13.19;100.00;101779.03;7382314;19;20446;-48
2021/10/18 11:27:38;;;;;;;14.90;8.17;;;;;;;13.18;100.00;101779.84;7401037;19;20398;-52
2021/10/18 11:30:10;;;;;;;14.47;8.40;;;;;;;13.27;100.00;101772.50;7373695;19;20498;-50
2021/10/18 11:32:40;;;;;;;16.60;8.40;;;;;;;13.23;100.00;101778.38;7408643;19;20395;-49
2021/10/18 11:35:14;;;;;;;11.07;7.40;;;;;;;13.07;100.00;101777.63;7349640;19;20447;-48
2021/10/18 11:38:01;;;;;;;14.53;8.27;;;;;;;13.13;100.00;101776.16;7403554;19;20556;-52
2021/10/18 11:40:33;;;;;;;14.30;7.90;;;;;;;13.09;100.00;101770.81;7368749;19;20771;-53
2021/10/18 11:43:04;;;;;;;16.57;7.70;;;;;;;13.18;100.00;101772.06;7404350;19;20384;-53
2021/10/18 11:45:36;;;;;;;13.70;7.27;;;;;;;13.13;100.00;101774.41;7396298;19;20439;-54
2021/10/18 11:48:08;;;;;;;12.33;8.20;;;;;;;13.14;100.00;101757.19;7404031;19;20443;-52
2021/10/18 11:50:41;;;;;;;16.90;8.50;;;;;;;13.22;100.00;101755.84;7387903;19;20419;-54
2021/10/18 11:53:15;;;;;;;12.20;7.70;;;;;;;13.30;100.00;101766.56;7405840;19;20478;-49
2021/10/18 11:55:49;;;;;;;14.00;8.20;;;;;;;13.24;100.00;101770.63;7394757;19;20980;-48
2021/10/18 11:58:21;;;;;;;12.93;8.23;;;;;;;13.44;100.00;101765.50;7405075;19;20398;-51
2021/10/18 12:00:58;;;;;;;14.07;7.80;;;;;;;13.24;100.00;101762.00;7354051;19;20877;-55
2021/10/18 12:03:29;;;;;;;11.70;7.47;;;;;;;13.25;100.00;101758.59;7403582;19;20431;-50
2021/10/18 12:06:00;;;;;;;13.03;7.10;;;;;;;13.22;100.00;101761.03;7342267;19;20441;-54
2021/10/18 12:08:35;;;;;;;14.03;7.30;;;;;;;13.29;100.00;101755.34;7403133;19;20444;-54
2021/10/18 12:11:08;;;;;;;12.50;7.33;;;;;;;13.31;100.00;101750.19;7383422;19;20459;-53
2021/10/18 12:13:39;;;;;;;13.03;8.03;;;;;;;13.22;100.00;101750.66;7371069;19;20854;-54
2021/10/18 12:16:15;;;;;;;12.90;8.20;;;;;;;13.33;100.00;101746.84;7403123;19;20387;-54
2021/10/18 12:18:49;;;;;;;15.33;8.07;;;;;;;13.37;100.00;101730.66;7390937;19;20399;-55
2021/10/18 12:21:23;;;;;;;13.10;8.07;;;;;;;13.43;100.00;101734.34;7403660;19;20384;-53
2021/10/18 12:23:57;;;;;;;19.20;8.00;;;;;;;13.44;100.00;101731.78;7350151;19;20471;-52
2021/10/18 12:26:28;;;;;;;14.40;7.53;;;;;;;13.25;100.00;101735.25;7403084;19;20759;-55
2021/10/18 12:28:59;;;;;;;16.67;8.77;;;;;;;13.27;100.00;101736.22;7397716;19;20475;-53
2021/10/18 12:31:31;;;;;;;12.30;8.50;;;;;;;13.31;100.00;101738.13;7403466;19;20439;-48